sensor_id;sensor_type;location;lat;lon;timestamp;P1;durP1;ratioP1;P2;durP2;ratioP2
25531;SDS011;13429;48.816;9.118;2023-05-07T00:00:52;4.38;;;3.05;;
25531;SDS011;13429;48.816;9.118;2023-05-07T00:03:18;4.65;;;3.15;;
25531;SDS011;13429;48.816;9.118;2023-05-07T00:05:45;4.82;;;2.90;;
25531;SDS011;13429;48.816;9.118;2023-05-07T00:08:11;4.20;;;2.70;;
25531;SDS011;13429;48.816;9.118;2023-05-07T00:10:37;5.53;;;3.10;;
25531;SDS011;13429;48.816;9.118;2023-05-07T00:13:03;3.65;;;2.78;;
25531;SDS011;13429;48.816;9.118;2023-05-07T00:15:29;4.40;;;2.63;;
25531;SDS011;13429;48.816;9.118;2023-05-07T00:17:55;5.93;;;2.95;;
25531;SDS011;13429;48.816;9.118;2023-05-07T00:20:23;5.40;;;3.20;;
25531;SDS011;13429;48.816;9.118;2023-05-07T00:22:49;4.38;;;2.95;;
25531;SDS011;13429;48.816;9.118;2023-05-07T00:25:15;3.72;;;3.20;;
25531;SDS011;13429;48.816;9.118;2023-05-07T00:27:41;3.42;;;2.78;;
25531;SDS011;13429;48.816;9.118;2023-05-07T00:30:07;7.50;;;2.85;;
25531;SDS011;13429;48.816;9.118;2023-05-07T00:32:33;5.10;;;2.95;;
25531;SDS011;13429;48.816;9.118;2023-05-07T00:34:59;3.88;;;2.55;;
25531;SDS011;13429;48.816;9.118;2023-05-07T00:37:25;5.32;;;2.90;;
25531;SDS011;13429;48.816;9.118;2023-05-07T00:39:51;3.85;;;2.80;;
25531;SDS011;13429;48.816;9.118;2023-05-07T00:42:18;7.40;;;2.63;;
25531;SDS011;13429;48.816;9.118;2023-05-07T00:44:44;4.45;;;3.00;;
25531;SDS011;13429;48.816;9.118;2023-05-07T00:47:10;4.35;;;2.83;;
25531;SDS011;13429;48.816;9.118;2023-05-07T00:49:43;3.30;;;2.80;;
25531;SDS011;13429;48.816;9.118;2023-05-07T00:52:14;3.70;;;2.85;;
25531;SDS011;13429;48.816;9.118;2023-05-07T00:54:41;5.22;;;3.28;;
25531;SDS011;13429;48.816;9.118;2023-05-07T00:57:07;2.83;;;2.28;;
25531;SDS011;13429;48.816;9.118;2023-05-07T00:59:34;6.47;;;2.90;;
25531;SDS011;13429;48.816;9.118;2023-05-07T01:02:01;5.30;;;3.10;;
25531;SDS011;13429;48.816;9.118;2023-05-07T01:04:27;3.78;;;2.70;;
25531;SDS011;13429;48.816;9.118;2023-05-07T01:06:56;4.88;;;3.40;;
25531;SDS011;13429;48.816;9.118;2023-05-07T01:09:23;4.13;;;2.70;;
25531;SDS011;13429;48.816;9.118;2023-05-07T01:11:50;5.05;;;2.97;;
25531;SDS011;13429;48.816;9.118;2023-05-07T01:14:16;4.07;;;2.85;;
25531;SDS011;13429;48.816;9.118;2023-05-07T01:16:42;4.35;;;2.70;;
25531;SDS011;13429;48.816;9.118;2023-05-07T01:19:09;4.88;;;3.00;;
25531;SDS011;13429;48.816;9.118;2023-05-07T01:21:39;5.93;;;3.33;;
25531;SDS011;13429;48.816;9.118;2023-05-07T01:24:08;6.43;;;3.30;;
25531;SDS011;13429;48.816;9.118;2023-05-07T01:26:34;4.03;;;2.72;;
25531;SDS011;13429;48.816;9.118;2023-05-07T01:29:00;4.97;;;3.15;;
25531;SDS011;13429;48.816;9.118;2023-05-07T01:31:26;4.70;;;3.40;;
25531;SDS011;13429;48.816;9.118;2023-05-07T01:33:52;5.57;;;3.03;;
25531;SDS011;13429;48.816;9.118;2023-05-07T01:36:19;5.18;;;3.13;;
25531;SDS011;13429;48.816;9.118;2023-05-07T01:38:46;4.35;;;3.00;;
25531;SDS011;13429;48.816;9.118;2023-05-07T01:41:12;4.43;;;2.88;;
25531;SDS011;13429;48.816;9.118;2023-05-07T01:43:38;7.47;;;3.65;;
25531;SDS011;13429;48.816;9.118;2023-05-07T01:46:06;5.43;;;3.67;;
25531;SDS011;13429;48.816;9.118;2023-05-07T01:48:32;6.68;;;3.08;;
25531;SDS011;13429;48.816;9.118;2023-05-07T01:50:58;5.18;;;3.40;;
25531;SDS011;13429;48.816;9.118;2023-05-07T01:53:26;5.53;;;2.97;;
25531;SDS011;13429;48.816;9.118;2023-05-07T01:55:53;6.35;;;2.97;;
25531;SDS011;13429;48.816;9.118;2023-05-07T01:58:19;5.88;;;3.50;;
25531;SDS011;13429;48.816;9.118;2023-05-07T02:00:45;3.92;;;3.15;;
25531;SDS011;13429;48.816;9.118;2023-05-07T02:03:11;7.55;;;3.47;;
25531;SDS011;13429;48.816;9.118;2023-05-07T02:05:37;5.35;;;3.10;;
25531;SDS011;13429;48.816;9.118;2023-05-07T02:08:03;7.15;;;3.50;;
25531;SDS011;13429;48.816;9.118;2023-05-07T02:10:29;6.05;;;3.45;;
25531;SDS011;13429;48.816;9.118;2023-05-07T02:12:55;5.68;;;3.17;;
25531;SDS011;13429;48.816;9.118;2023-05-07T02:15:21;6.57;;;3.10;;
25531;SDS011;13429;48.816;9.118;2023-05-07T02:18:00;5.38;;;3.03;;
25531;SDS011;13429;48.816;9.118;2023-05-07T02:20:26;5.30;;;3.30;;
25531;SDS011;13429;48.816;9.118;2023-05-07T02:22:52;5.35;;;2.97;;
25531;SDS011;13429;48.816;9.118;2023-05-07T02:25:18;7.07;;;2.92;;
25531;SDS011;13429;48.816;9.118;2023-05-07T02:27:44;9.18;;;3.42;;
25531;SDS011;13429;48.816;9.118;2023-05-07T02:30:11;7.35;;;2.70;;
25531;SDS011;13429;48.816;9.118;2023-05-07T02:32:37;4.68;;;2.50;;
25531;SDS011;13429;48.816;9.118;2023-05-07T02:35:03;3.20;;;2.40;;
25531;SDS011;13429;48.816;9.118;2023-05-07T02:37:29;7.88;;;3.22;;
25531;SDS011;13429;48.816;9.118;2023-05-07T02:39:55;4.00;;;2.88;;
25531;SDS011;13429;48.816;9.118;2023-05-07T02:42:21;3.20;;;2.40;;
25531;SDS011;13429;48.816;9.118;2023-05-07T02:44:47;4.88;;;3.03;;
25531;SDS011;13429;48.816;9.118;2023-05-07T02:47:14;5.03;;;3.30;;
25531;SDS011;13429;48.816;9.118;2023-05-07T02:49:40;4.22;;;2.85;;
25531;SDS011;13429;48.816;9.118;2023-05-07T02:52:07;5.15;;;3.20;;
25531;SDS011;13429;48.816;9.118;2023-05-07T02:54:33;4.03;;;3.33;;
25531;SDS011;13429;48.816;9.118;2023-05-07T02:56:59;4.78;;;3.55;;
25531;SDS011;13429;48.816;9.118;2023-05-07T02:59:25;8.68;;;3.33;;
25531;SDS011;13429;48.816;9.118;2023-05-07T03:01:52;5.35;;;3.50;;
25531;SDS011;13429;48.816;9.118;2023-05-07T03:04:18;4.20;;;3.08;;
25531;SDS011;13429;48.816;9.118;2023-05-07T03:06:44;3.75;;;3.08;;
25531;SDS011;13429;48.816;9.118;2023-05-07T03:09:10;4.90;;;2.97;;
25531;SDS011;13429;48.816;9.118;2023-05-07T03:11:36;4.90;;;3.05;;
25531;SDS011;13429;48.816;9.118;2023-05-07T03:14:02;10.68;;;5.03;;
25531;SDS011;13429;48.816;9.118;2023-05-07T03:16:28;6.15;;;2.88;;
25531;SDS011;13429;48.816;9.118;2023-05-07T03:18:54;5.18;;;3.25;;
25531;SDS011;13429;48.816;9.118;2023-05-07T03:21:20;6.05;;;3.35;;
25531;SDS011;13429;48.816;9.118;2023-05-07T03:23:46;7.00;;;3.53;;
25531;SDS011;13429;48.816;9.118;2023-05-07T03:26:12;4.07;;;3.08;;
25531;SDS011;13429;48.816;9.118;2023-05-07T03:28:38;6.13;;;3.47;;
25531;SDS011;13429;48.816;9.118;2023-05-07T03:31:04;4.95;;;3.45;;
25531;SDS011;13429;48.816;9.118;2023-05-07T03:33:32;5.88;;;3.38;;
25531;SDS011;13429;48.816;9.118;2023-05-07T03:35:59;7.38;;;4.10;;
25531;SDS011;13429;48.816;9.118;2023-05-07T03:38:25;5.45;;;3.83;;
25531;SDS011;13429;48.816;9.118;2023-05-07T03:40:51;5.20;;;3.22;;
25531;SDS011;13429;48.816;9.118;2023-05-07T03:43:17;6.78;;;4.38;;
25531;SDS011;13429;48.816;9.118;2023-05-07T03:45:43;5.03;;;3.47;;
25531;SDS011;13429;48.816;9.118;2023-05-07T03:48:09;4.68;;;3.35;;
25531;SDS011;13429;48.816;9.118;2023-05-07T03:50:35;5.80;;;4.10;;
25531;SDS011;13429;48.816;9.118;2023-05-07T03:53:01;5.03;;;3.75;;
25531;SDS011;13429;48.816;9.118;2023-05-07T03:55:27;7.05;;;4.18;;
25531;SDS011;13429;48.816;9.118;2023-05-07T03:57:53;5.03;;;3.55;;
25531;SDS011;13429;48.816;9.118;2023-05-07T04:00:21;7.05;;;3.40;;
25531;SDS011;13429;48.816;9.118;2023-05-07T04:02:47;7.13;;;4.55;;
25531;SDS011;13429;48.816;9.118;2023-05-07T04:05:13;4.85;;;3.53;;
25531;SDS011;13429;48.816;9.118;2023-05-07T04:07:40;6.65;;;3.60;;
25531;SDS011;13429;48.816;9.118;2023-05-07T04:10:06;5.68;;;3.90;;
25531;SDS011;13429;48.816;9.118;2023-05-07T04:12:33;4.53;;;3.17;;
25531;SDS011;13429;48.816;9.118;2023-05-07T04:14:59;6.20;;;3.85;;
25531;SDS011;13429;48.816;9.118;2023-05-07T04:17:25;5.03;;;3.50;;
25531;SDS011;13429;48.816;9.118;2023-05-07T04:19:51;5.40;;;3.72;;
25531;SDS011;13429;48.816;9.118;2023-05-07T04:22:17;6.88;;;4.22;;
25531;SDS011;13429;48.816;9.118;2023-05-07T04:24:43;7.85;;;4.15;;
25531;SDS011;13429;48.816;9.118;2023-05-07T04:27:09;5.05;;;3.13;;
25531;SDS011;13429;48.816;9.118;2023-05-07T04:29:35;3.65;;;3.25;;
25531;SDS011;13429;48.816;9.118;2023-05-07T04:32:01;5.38;;;3.90;;
25531;SDS011;13429;48.816;9.118;2023-05-07T04:34:27;5.65;;;3.45;;
25531;SDS011;13429;48.816;9.118;2023-05-07T04:36:53;4.82;;;3.47;;
25531;SDS011;13429;48.816;9.118;2023-05-07T04:39:19;6.32;;;3.92;;
25531;SDS011;13429;48.816;9.118;2023-05-07T04:41:45;7.28;;;4.32;;
25531;SDS011;13429;48.816;9.118;2023-05-07T04:44:11;6.03;;;3.60;;
25531;SDS011;13429;48.816;9.118;2023-05-07T04:46:38;5.20;;;3.55;;
25531;SDS011;13429;48.816;9.118;2023-05-07T04:49:04;4.93;;;3.60;;
25531;SDS011;13429;48.816;9.118;2023-05-07T04:51:30;8.90;;;4.40;;
25531;SDS011;13429;48.816;9.118;2023-05-07T04:53:57;4.35;;;3.33;;
25531;SDS011;13429;48.816;9.118;2023-05-07T04:56:23;5.22;;;3.35;;
25531;SDS011;13429;48.816;9.118;2023-05-07T04:58:49;5.97;;;3.30;;
25531;SDS011;13429;48.816;9.118;2023-05-07T05:01:16;6.10;;;3.53;;
25531;SDS011;13429;48.816;9.118;2023-05-07T05:03:42;5.13;;;3.50;;
25531;SDS011;13429;48.816;9.118;2023-05-07T05:06:08;4.45;;;3.13;;
25531;SDS011;13429;48.816;9.118;2023-05-07T05:08:34;6.40;;;3.92;;
25531;SDS011;13429;48.816;9.118;2023-05-07T05:11:00;5.28;;;3.47;;
25531;SDS011;13429;48.816;9.118;2023-05-07T05:13:27;4.43;;;2.90;;
25531;SDS011;13429;48.816;9.118;2023-05-07T05:15:53;3.95;;;3.13;;
25531;SDS011;13429;48.816;9.118;2023-05-07T05:18:19;4.28;;;3.10;;
25531;SDS011;13429;48.816;9.118;2023-05-07T05:20:45;6.43;;;3.08;;
25531;SDS011;13429;48.816;9.118;2023-05-07T05:23:11;6.50;;;2.80;;
25531;SDS011;13429;48.816;9.118;2023-05-07T05:25:37;3.85;;;3.03;;
25531;SDS011;13429;48.816;9.118;2023-05-07T05:28:05;6.32;;;3.92;;
25531;SDS011;13429;48.816;9.118;2023-05-07T05:30:31;5.65;;;4.00;;
25531;SDS011;13429;48.816;9.118;2023-05-07T05:32:57;5.47;;;3.95;;
25531;SDS011;13429;48.816;9.118;2023-05-07T05:35:23;4.95;;;3.85;;
25531;SDS011;13429;48.816;9.118;2023-05-07T05:37:49;5.40;;;3.75;;
25531;SDS011;13429;48.816;9.118;2023-05-07T05:40:15;5.50;;;3.75;;
25531;SDS011;13429;48.816;9.118;2023-05-07T05:42:41;5.28;;;3.78;;
25531;SDS011;13429;48.816;9.118;2023-05-07T05:45:07;5.82;;;3.78;;
25531;SDS011;13429;48.816;9.118;2023-05-07T05:47:33;5.55;;;4.00;;
25531;SDS011;13429;48.816;9.118;2023-05-07T05:49:59;9.07;;;3.88;;
25531;SDS011;13429;48.816;9.118;2023-05-07T05:52:26;6.97;;;4.45;;
25531;SDS011;13429;48.816;9.118;2023-05-07T05:54:53;6.97;;;4.50;;
25531;SDS011;13429;48.816;9.118;2023-05-07T05:57:19;9.02;;;5.30;;
25531;SDS011;13429;48.816;9.118;2023-05-07T05:59:45;5.80;;;4.30;;
25531;SDS011;13429;48.816;9.118;2023-05-07T06:02:12;7.15;;;5.53;;
25531;SDS011;13429;48.816;9.118;2023-05-07T06:04:38;6.40;;;4.60;;
25531;SDS011;13429;48.816;9.118;2023-05-07T06:07:04;6.30;;;4.60;;
25531;SDS011;13429;48.816;9.118;2023-05-07T06:09:30;5.88;;;3.85;;
25531;SDS011;13429;48.816;9.118;2023-05-07T06:11:57;5.95;;;4.43;;
25531;SDS011;13429;48.816;9.118;2023-05-07T06:14:23;5.65;;;4.68;;
25531;SDS011;13429;48.816;9.118;2023-05-07T06:16:49;7.88;;;5.47;;
25531;SDS011;13429;48.816;9.118;2023-05-07T06:19:15;8.18;;;5.05;;
25531;SDS011;13429;48.816;9.118;2023-05-07T06:21:43;8.65;;;4.60;;
25531;SDS011;13429;48.816;9.118;2023-05-07T06:24:09;7.15;;;4.72;;
25531;SDS011;13429;48.816;9.118;2023-05-07T06:26:35;5.85;;;4.60;;
25531;SDS011;13429;48.816;9.118;2023-05-07T06:29:01;6.05;;;4.15;;
25531;SDS011;13429;48.816;9.118;2023-05-07T06:31:29;5.32;;;3.78;;
25531;SDS011;13429;48.816;9.118;2023-05-07T06:33:56;7.38;;;4.40;;
25531;SDS011;13429;48.816;9.118;2023-05-07T06:36:24;8.02;;;4.63;;
25531;SDS011;13429;48.816;9.118;2023-05-07T06:38:50;7.97;;;5.18;;
25531;SDS011;13429;48.816;9.118;2023-05-07T06:41:16;6.88;;;4.97;;
25531;SDS011;13429;48.816;9.118;2023-05-07T06:43:42;7.50;;;5.53;;
25531;SDS011;13429;48.816;9.118;2023-05-07T06:46:08;8.40;;;5.03;;
25531;SDS011;13429;48.816;9.118;2023-05-07T06:48:35;7.65;;;4.55;;
25531;SDS011;13429;48.816;9.118;2023-05-07T06:51:01;9.00;;;5.00;;
25531;SDS011;13429;48.816;9.118;2023-05-07T06:53:27;7.35;;;4.97;;
25531;SDS011;13429;48.816;9.118;2023-05-07T06:55:54;8.70;;;4.47;;
25531;SDS011;13429;48.816;9.118;2023-05-07T06:58:20;6.28;;;4.60;;
25531;SDS011;13429;48.816;9.118;2023-05-07T07:00:46;5.47;;;4.10;;
25531;SDS011;13429;48.816;9.118;2023-05-07T07:03:12;5.18;;;3.50;;
25531;SDS011;13429;48.816;9.118;2023-05-07T07:05:42;7.75;;;4.25;;
25531;SDS011;13429;48.816;9.118;2023-05-07T07:08:09;8.63;;;4.75;;
25531;SDS011;13429;48.816;9.118;2023-05-07T07:10:35;6.20;;;4.60;;
25531;SDS011;13429;48.816;9.118;2023-05-07T07:13:03;7.68;;;4.40;;
25531;SDS011;13429;48.816;9.118;2023-05-07T07:15:29;7.65;;;4.55;;
25531;SDS011;13429;48.816;9.118;2023-05-07T07:17:55;6.05;;;3.72;;
25531;SDS011;13429;48.816;9.118;2023-05-07T07:20:22;5.05;;;3.60;;
25531;SDS011;13429;48.816;9.118;2023-05-07T07:22:48;9.55;;;4.30;;
25531;SDS011;13429;48.816;9.118;2023-05-07T07:25:15;6.28;;;4.07;;
25531;SDS011;13429;48.816;9.118;2023-05-07T07:27:41;5.55;;;3.22;;
25531;SDS011;13429;48.816;9.118;2023-05-07T07:30:07;6.00;;;3.40;;
25531;SDS011;13429;48.816;9.118;2023-05-07T07:32:34;4.85;;;3.53;;
25531;SDS011;13429;48.816;9.118;2023-05-07T07:35:01;5.53;;;3.22;;
25531;SDS011;13429;48.816;9.118;2023-05-07T07:37:27;5.90;;;3.63;;
25531;SDS011;13429;48.816;9.118;2023-05-07T07:39:54;5.35;;;3.55;;
25531;SDS011;13429;48.816;9.118;2023-05-07T07:42:20;6.70;;;3.40;;
25531;SDS011;13429;48.816;9.118;2023-05-07T07:44:47;8.70;;;3.60;;
25531;SDS011;13429;48.816;9.118;2023-05-07T07:47:13;5.95;;;3.70;;
25531;SDS011;13429;48.816;9.118;2023-05-07T07:49:39;6.63;;;3.17;;
25531;SDS011;13429;48.816;9.118;2023-05-07T07:52:05;3.65;;;2.92;;
25531;SDS011;13429;48.816;9.118;2023-05-07T07:54:31;5.15;;;3.30;;
25531;SDS011;13429;48.816;9.118;2023-05-07T07:56:58;4.38;;;2.72;;
25531;SDS011;13429;48.816;9.118;2023-05-07T07:59:24;3.75;;;2.85;;
25531;SDS011;13429;48.816;9.118;2023-05-07T08:01:51;3.75;;;2.42;;
25531;SDS011;13429;48.816;9.118;2023-05-07T08:04:20;5.05;;;3.13;;
25531;SDS011;13429;48.816;9.118;2023-05-07T08:06:47;3.92;;;2.85;;
25531;SDS011;13429;48.816;9.118;2023-05-07T08:09:13;5.47;;;3.53;;
25531;SDS011;13429;48.816;9.118;2023-05-07T08:11:40;5.25;;;2.92;;
25531;SDS011;13429;48.816;9.118;2023-05-07T08:14:06;5.05;;;3.42;;
25531;SDS011;13429;48.816;9.118;2023-05-07T08:16:33;5.18;;;3.05;;
25531;SDS011;13429;48.816;9.118;2023-05-07T08:18:59;2.85;;;2.45;;
25531;SDS011;13429;48.816;9.118;2023-05-07T08:21:25;6.28;;;3.67;;
25531;SDS011;13429;48.816;9.118;2023-05-07T08:23:52;7.85;;;3.05;;
25531;SDS011;13429;48.816;9.118;2023-05-07T08:26:18;4.50;;;3.42;;
25531;SDS011;13429;48.816;9.118;2023-05-07T08:28:44;7.93;;;3.42;;
25531;SDS011;13429;48.816;9.118;2023-05-07T08:31:10;4.05;;;2.92;;
25531;SDS011;13429;48.816;9.118;2023-05-07T08:33:36;5.40;;;3.20;;
25531;SDS011;13429;48.816;9.118;2023-05-07T08:36:03;6.25;;;3.60;;
25531;SDS011;13429;48.816;9.118;2023-05-07T08:38:29;5.03;;;3.33;;
25531;SDS011;13429;48.816;9.118;2023-05-07T08:40:56;4.70;;;3.10;;
25531;SDS011;13429;48.816;9.118;2023-05-07T08:43:22;7.60;;;3.65;;
25531;SDS011;13429;48.816;9.118;2023-05-07T08:45:51;5.72;;;3.97;;
25531;SDS011;13429;48.816;9.118;2023-05-07T08:48:18;4.18;;;3.30;;
25531;SDS011;13429;48.816;9.118;2023-05-07T08:50:46;3.90;;;3.03;;
25531;SDS011;13429;48.816;9.118;2023-05-07T08:53:12;4.47;;;3.03;;
25531;SDS011;13429;48.816;9.118;2023-05-07T08:55:38;4.72;;;3.20;;
25531;SDS011;13429;48.816;9.118;2023-05-07T08:58:05;5.18;;;2.80;;
25531;SDS011;13429;48.816;9.118;2023-05-07T09:00:31;5.55;;;2.70;;
25531;SDS011;13429;48.816;9.118;2023-05-07T09:02:58;4.60;;;2.72;;
25531;SDS011;13429;48.816;9.118;2023-05-07T09:05:24;3.33;;;2.53;;
25531;SDS011;13429;48.816;9.118;2023-05-07T09:07:50;3.35;;;2.50;;
25531;SDS011;13429;48.816;9.118;2023-05-07T09:10:16;3.05;;;2.60;;
25531;SDS011;13429;48.816;9.118;2023-05-07T09:12:42;5.32;;;2.58;;
25531;SDS011;13429;48.816;9.118;2023-05-07T09:15:08;4.78;;;1.92;;
25531;SDS011;13429;48.816;9.118;2023-05-07T09:17:34;7.32;;;2.53;;
25531;SDS011;13429;48.816;9.118;2023-05-07T09:20:04;4.90;;;2.08;;
25531;SDS011;13429;48.816;9.118;2023-05-07T09:22:32;2.53;;;2.17;;
25531;SDS011;13429;48.816;9.118;2023-05-07T09:24:58;3.30;;;2.28;;
25531;SDS011;13429;48.816;9.118;2023-05-07T09:27:24;5.40;;;2.78;;
25531;SDS011;13429;48.816;9.118;2023-05-07T09:29:51;4.72;;;2.28;;
25531;SDS011;13429;48.816;9.118;2023-05-07T09:32:17;2.55;;;2.05;;
25531;SDS011;13429;48.816;9.118;2023-05-07T09:34:43;6.60;;;2.45;;
25531;SDS011;13429;48.816;9.118;2023-05-07T09:37:10;3.97;;;2.05;;
25531;SDS011;13429;48.816;9.118;2023-05-07T09:39:41;4.38;;;2.22;;
25531;SDS011;13429;48.816;9.118;2023-05-07T09:42:08;2.80;;;1.60;;
25531;SDS011;13429;48.816;9.118;2023-05-07T09:44:34;4.10;;;2.10;;
25531;SDS011;13429;48.816;9.118;2023-05-07T09:47:01;2.40;;;1.90;;
25531;SDS011;13429;48.816;9.118;2023-05-07T09:49:30;4.60;;;2.25;;
25531;SDS011;13429;48.816;9.118;2023-05-07T09:51:59;2.45;;;1.88;;
25531;SDS011;13429;48.816;9.118;2023-05-07T09:54:26;3.20;;;1.75;;
25531;SDS011;13429;48.816;9.118;2023-05-07T09:56:54;3.90;;;1.92;;
25531;SDS011;13429;48.816;9.118;2023-05-07T09:59:20;4.03;;;2.13;;
25531;SDS011;13429;48.816;9.118;2023-05-07T10:01:47;3.05;;;1.80;;
25531;SDS011;13429;48.816;9.118;2023-05-07T10:04:13;3.03;;;1.90;;
25531;SDS011;13429;48.816;9.118;2023-05-07T10:06:40;4.32;;;1.55;;
25531;SDS011;13429;48.816;9.118;2023-05-07T10:09:06;3.13;;;1.80;;
25531;SDS011;13429;48.816;9.118;2023-05-07T10:11:36;7.75;;;1.63;;
25531;SDS011;13429;48.816;9.118;2023-05-07T10:14:04;3.38;;;1.88;;
25531;SDS011;13429;48.816;9.118;2023-05-07T10:16:31;2.97;;;1.98;;
25531;SDS011;13429;48.816;9.118;2023-05-07T10:19:02;3.72;;;1.90;;
25531;SDS011;13429;48.816;9.118;2023-05-07T10:21:28;2.45;;;1.83;;
25531;SDS011;13429;48.816;9.118;2023-05-07T10:24:01;3.47;;;1.65;;
25531;SDS011;13429;48.816;9.118;2023-05-07T10:26:31;3.85;;;1.75;;
25531;SDS011;13429;48.816;9.118;2023-05-07T10:28:59;3.08;;;1.70;;
25531;SDS011;13429;48.816;9.118;2023-05-07T10:33:56;4.88;;;1.80;;
25531;SDS011;13429;48.816;9.118;2023-05-07T10:36:24;2.80;;;1.70;;
25531;SDS011;13429;48.816;9.118;2023-05-07T10:38:50;3.63;;;1.60;;
25531;SDS011;13429;48.816;9.118;2023-05-07T10:41:16;3.63;;;2.03;;
25531;SDS011;13429;48.816;9.118;2023-05-07T10:43:44;3.00;;;1.90;;
25531;SDS011;13429;48.816;9.118;2023-05-07T10:46:14;3.15;;;1.88;;
25531;SDS011;13429;48.816;9.118;2023-05-07T10:51:26;2.67;;;2.08;;
25531;SDS011;13429;48.816;9.118;2023-05-07T10:56:41;3.95;;;1.60;;
25531;SDS011;13429;48.816;9.118;2023-05-07T11:02:01;4.63;;;1.80;;
25531;SDS011;13429;48.816;9.118;2023-05-07T11:04:29;4.78;;;2.20;;
25531;SDS011;13429;48.816;9.118;2023-05-07T11:13:02;2.60;;;1.73;;
25531;SDS011;13429;48.816;9.118;2023-05-07T11:15:07;2.28;;;1.90;;
25531;SDS011;13429;48.816;9.118;2023-05-07T11:17:34;3.67;;;1.95;;
25531;SDS011;13429;48.816;9.118;2023-05-07T11:20:03;2.35;;;1.70;;
25531;SDS011;13429;48.816;9.118;2023-05-07T11:27:27;3.17;;;1.50;;
25531;SDS011;13429;48.816;9.118;2023-05-07T11:29:54;2.83;;;1.45;;
25531;SDS011;13429;48.816;9.118;2023-05-07T11:32:30;3.65;;;2.03;;
25531;SDS011;13429;48.816;9.118;2023-05-07T11:34:57;3.50;;;2.20;;
25531;SDS011;13429;48.816;9.118;2023-05-07T11:37:24;3.60;;;1.90;;
25531;SDS011;13429;48.816;9.118;2023-05-07T11:39:51;2.80;;;1.92;;
25531;SDS011;13429;48.816;9.118;2023-05-07T11:42:28;3.95;;;2.70;;
25531;SDS011;13429;48.816;9.118;2023-05-07T11:44:54;4.28;;;2.55;;
25531;SDS011;13429;48.816;9.118;2023-05-07T11:47:21;2.83;;;2.15;;
25531;SDS011;13429;48.816;9.118;2023-05-07T11:49:48;4.07;;;2.38;;
25531;SDS011;13429;48.816;9.118;2023-05-07T11:52:15;5.00;;;2.88;;
25531;SDS011;13429;48.816;9.118;2023-05-07T11:54:41;4.70;;;2.72;;
25531;SDS011;13429;48.816;9.118;2023-05-07T11:57:13;5.40;;;2.85;;
25531;SDS011;13429;48.816;9.118;2023-05-07T11:59:40;3.75;;;2.53;;
25531;SDS011;13429;48.816;9.118;2023-05-07T12:02:07;3.80;;;2.17;;
25531;SDS011;13429;48.816;9.118;2023-05-07T12:04:33;2.63;;;2.03;;
25531;SDS011;13429;48.816;9.118;2023-05-07T12:07:00;5.90;;;1.67;;
25531;SDS011;13429;48.816;9.118;2023-05-07T12:09:26;4.32;;;1.70;;
25531;SDS011;13429;48.816;9.118;2023-05-07T12:11:52;3.28;;;2.42;;
25531;SDS011;13429;48.816;9.118;2023-05-07T12:14:26;3.00;;;1.88;;
25531;SDS011;13429;48.816;9.118;2023-05-07T12:16:54;3.75;;;2.20;;
25531;SDS011;13429;48.816;9.118;2023-05-07T12:19:20;3.72;;;2.38;;
25531;SDS011;13429;48.816;9.118;2023-05-07T12:21:46;4.55;;;2.13;;
25531;SDS011;13429;48.816;9.118;2023-05-07T12:24:14;3.50;;;2.65;;
25531;SDS011;13429;48.816;9.118;2023-05-07T12:26:40;7.97;;;2.72;;
25531;SDS011;13429;48.816;9.118;2023-05-07T12:29:06;2.60;;;1.80;;
25531;SDS011;13429;48.816;9.118;2023-05-07T12:31:33;5.13;;;1.83;;
25531;SDS011;13429;48.816;9.118;2023-05-07T12:33:59;2.90;;;1.80;;
25531;SDS011;13429;48.816;9.118;2023-05-07T12:36:25;6.05;;;2.10;;
25531;SDS011;13429;48.816;9.118;2023-05-07T12:38:51;6.18;;;2.28;;
25531;SDS011;13429;48.816;9.118;2023-05-07T12:41:18;4.53;;;2.15;;
25531;SDS011;13429;48.816;9.118;2023-05-07T12:43:44;6.93;;;2.70;;
25531;SDS011;13429;48.816;9.118;2023-05-07T12:46:11;8.30;;;3.40;;
25531;SDS011;13429;48.816;9.118;2023-05-07T12:48:43;4.82;;;2.20;;
25531;SDS011;13429;48.816;9.118;2023-05-07T12:51:12;5.72;;;2.53;;
25531;SDS011;13429;48.816;9.118;2023-05-07T12:53:40;3.58;;;2.40;;
25531;SDS011;13429;48.816;9.118;2023-05-07T12:56:10;8.13;;;2.60;;
25531;SDS011;13429;48.816;9.118;2023-05-07T12:58:37;3.03;;;1.80;;
25531;SDS011;13429;48.816;9.118;2023-05-07T13:01:07;2.90;;;1.40;;
25531;SDS011;13429;48.816;9.118;2023-05-07T13:03:35;4.40;;;2.28;;
25531;SDS011;13429;48.816;9.118;2023-05-07T13:06:02;3.42;;;1.77;;
25531;SDS011;13429;48.816;9.118;2023-05-07T13:08:39;3.80;;;1.40;;
25531;SDS011;13429;48.816;9.118;2023-05-07T13:14:25;3.83;;;2.50;;
25531;SDS011;13429;48.816;9.118;2023-05-07T13:16:52;4.10;;;1.50;;
25531;SDS011;13429;48.816;9.118;2023-05-07T13:19:18;15.50;;;5.22;;
25531;SDS011;13429;48.816;9.118;2023-05-07T13:21:44;7.93;;;2.60;;
25531;SDS011;13429;48.816;9.118;2023-05-07T13:24:10;4.65;;;1.60;;
25531;SDS011;13429;48.816;9.118;2023-05-07T13:26:36;4.38;;;1.58;;
25531;SDS011;13429;48.816;9.118;2023-05-07T13:29:02;7.20;;;1.45;;
25531;SDS011;13429;48.816;9.118;2023-05-07T13:31:29;4.80;;;1.90;;
25531;SDS011;13429;48.816;9.118;2023-05-07T13:33:55;5.88;;;1.42;;
25531;SDS011;13429;48.816;9.118;2023-05-07T13:36:21;7.30;;;2.38;;
25531;SDS011;13429;48.816;9.118;2023-05-07T13:38:47;11.63;;;3.38;;
25531;SDS011;13429;48.816;9.118;2023-05-07T13:41:13;13.20;;;4.80;;
25531;SDS011;13429;48.816;9.118;2023-05-07T13:43:39;9.93;;;3.13;;
25531;SDS011;13429;48.816;9.118;2023-05-07T13:46:05;13.48;;;4.13;;
25531;SDS011;13429;48.816;9.118;2023-05-07T13:48:31;4.97;;;2.33;;
25531;SDS011;13429;48.816;9.118;2023-05-07T13:50:57;6.32;;;2.50;;
25531;SDS011;13429;48.816;9.118;2023-05-07T13:53:23;2.88;;;1.70;;
25531;SDS011;13429;48.816;9.118;2023-05-07T13:55:50;3.90;;;1.33;;
25531;SDS011;13429;48.816;9.118;2023-05-07T13:58:16;10.55;;;2.35;;
25531;SDS011;13429;48.816;9.118;2023-05-07T14:00:42;7.22;;;1.85;;
25531;SDS011;13429;48.816;9.118;2023-05-07T14:03:08;4.13;;;1.63;;
25531;SDS011;13429;48.816;9.118;2023-05-07T14:05:35;3.65;;;1.40;;
25531;SDS011;13429;48.816;9.118;2023-05-07T14:08:01;4.03;;;1.92;;
25531;SDS011;13429;48.816;9.118;2023-05-07T14:10:28;9.68;;;2.08;;
25531;SDS011;13429;48.816;9.118;2023-05-07T14:12:56;3.00;;;1.70;;
25531;SDS011;13429;48.816;9.118;2023-05-07T14:15:22;3.22;;;1.63;;
25531;SDS011;13429;48.816;9.118;2023-05-07T14:17:48;3.22;;;1.52;;
25531;SDS011;13429;48.816;9.118;2023-05-07T14:20:20;2.70;;;1.90;;
25531;SDS011;13429;48.816;9.118;2023-05-07T14:22:53;3.13;;;2.00;;
25531;SDS011;13429;48.816;9.118;2023-05-07T14:25:19;5.38;;;2.10;;
25531;SDS011;13429;48.816;9.118;2023-05-07T14:27:45;6.18;;;2.53;;
25531;SDS011;13429;48.816;9.118;2023-05-07T14:30:11;7.10;;;2.80;;
25531;SDS011;13429;48.816;9.118;2023-05-07T14:32:37;5.07;;;2.80;;
25531;SDS011;13429;48.816;9.118;2023-05-07T14:35:03;5.53;;;3.42;;
25531;SDS011;13429;48.816;9.118;2023-05-07T14:37:29;3.83;;;2.95;;
25531;SDS011;13429;48.816;9.118;2023-05-07T14:39:55;5.32;;;2.90;;
25531;SDS011;13429;48.816;9.118;2023-05-07T14:42:21;4.32;;;2.20;;
25531;SDS011;13429;48.816;9.118;2023-05-07T14:44:47;4.57;;;2.00;;
25531;SDS011;13429;48.816;9.118;2023-05-07T14:47:14;5.03;;;2.10;;
25531;SDS011;13429;48.816;9.118;2023-05-07T14:49:40;3.42;;;1.90;;
25531;SDS011;13429;48.816;9.118;2023-05-07T14:52:07;5.70;;;1.88;;
25531;SDS011;13429;48.816;9.118;2023-05-07T14:54:38;2.08;;;1.40;;
25531;SDS011;13429;48.816;9.118;2023-05-07T14:57:04;4.07;;;1.90;;
25531;SDS011;13429;48.816;9.118;2023-05-07T14:59:30;3.55;;;1.40;;
25531;SDS011;13429;48.816;9.118;2023-05-07T15:01:57;2.83;;;1.90;;
25531;SDS011;13429;48.816;9.118;2023-05-07T15:04:23;2.63;;;1.58;;
25531;SDS011;13429;48.816;9.118;2023-05-07T15:06:50;3.38;;;1.80;;
25531;SDS011;13429;48.816;9.118;2023-05-07T15:09:17;3.72;;;1.80;;